Terminal Aerodrome Forecast
Issued by NWS Jacksonville, FL

Home | Current Version | Previous Version | Text Only | Print | Product List | Glossary On
Versions: 1 2 3 4 5 6 7 8 9 10 11 12 13 14 15 16 17 18 19
989
FTUS42 KJAX 161730
TAFSSI
TAF
KSSI 161730Z 1618/1718 26008KT P6SM FEW250
     FM161900 12010KT P6SM SCT045
     FM162300 18007KT P6SM FEW050 SCT250=

USA.gov is the U.S. government's official web portal to all federal, state and local government web resources and services.